createdAt,value
2023-03-19T00:01:51.881Z,67.02
2023-03-19T00:04:37.281Z,66.98
2023-03-19T00:07:22.735Z,67.42
2023-03-19T00:10:08.667Z,66.85
2023-03-19T00:12:54.032Z,67.75
2023-03-19T00:15:39.453Z,67.58
2023-03-19T00:18:24.729Z,67.46
2023-03-19T00:21:09.983Z,67.27
2023-03-19T00:23:55.477Z,67.37
2023-03-19T00:26:40.840Z,67.40
2023-03-19T00:29:26.065Z,67.22
2023-03-19T00:32:11.681Z,66.65
2023-03-19T00:34:56.903Z,67.54
2023-03-19T00:37:42.470Z,67.82
2023-03-19T00:40:27.726Z,67.48
2023-03-19T00:43:13.034Z,67.90
2023-03-19T00:45:58.580Z,68.20
2023-03-19T00:48:43.784Z,67.90
2023-03-19T00:51:29.263Z,67.42
2023-03-19T00:54:14.534Z,67.71
2023-03-19T00:57:00.162Z,67.45
2023-03-19T00:59:46.016Z,67.96
2023-03-19T01:02:31.822Z,67.92
2023-03-19T01:05:17.048Z,67.89
2023-03-19T01:08:02.578Z,67.77
2023-03-19T01:10:49.068Z,67.74
2023-03-19T01:13:34.320Z,67.88
2023-03-19T01:16:19.532Z,67.96
2023-03-19T01:19:04.822Z,67.69
2023-03-19T01:21:50.578Z,68.14
2023-03-19T01:24:39.287Z,67.98
2023-03-19T01:27:24.784Z,67.85
2023-03-19T01:30:11.288Z,68.85
2023-03-19T01:33:15.736Z,69.63
2023-03-19T01:36:36.416Z,70.39
2023-03-19T01:39:24.546Z,70.25
2023-03-19T01:42:10.166Z,70.40
2023-03-19T01:45:04.057Z,71.52
2023-03-19T01:48:24.841Z,71.30
2023-03-19T01:51:25.156Z,71.41
2023-03-19T01:54:35.888Z,70.48
2023-03-19T01:57:47.383Z,69.89
2023-03-19T02:00:50.584Z,69.46
2023-03-19T02:03:38.561Z,69.09
2023-03-19T02:06:50.551Z,68.91
2023-03-19T02:09:37.526Z,68.82
2023-03-19T02:12:22.698Z,69.06
2023-03-19T02:15:08.679Z,68.88
2023-03-19T02:17:54.105Z,69.31
2023-03-19T02:20:50.896Z,68.85
2023-03-19T02:23:35.970Z,68.76
2023-03-19T02:26:30.629Z,67.16
2023-03-19T02:29:20.775Z,67.67
2023-03-19T02:32:06.673Z,67.89
2023-03-19T02:34:53.951Z,68.06
2023-03-19T02:37:39.418Z,68.46
2023-03-19T02:40:29.118Z,68.26
2023-03-19T02:43:14.501Z,68.22
2023-03-19T02:46:01.476Z,68.11
2023-03-19T02:48:47.310Z,67.62
2023-03-19T02:51:32.553Z,67.28
2023-03-19T02:54:17.797Z,66.71
2023-03-19T02:57:03.023Z,66.93
2023-03-19T02:59:48.643Z,67.26
2023-03-19T03:02:34.058Z,69.60
2023-03-19T03:05:19.179Z,69.47
2023-03-19T03:08:05.582Z,68.72
2023-03-19T03:10:50.771Z,68.13
2023-03-19T03:13:36.122Z,68.24
2023-03-19T03:16:21.619Z,68.33
2023-03-19T03:19:07.340Z,69.66
2023-03-19T03:21:53.493Z,69.83
2023-03-19T03:24:39.909Z,70.33
2023-03-19T03:27:25.112Z,70.47
2023-03-19T03:30:12.217Z,70.10
2023-03-19T03:32:57.579Z,69.89
2023-03-19T03:35:43.388Z,70.31
2023-03-19T03:38:29.079Z,69.70
2023-03-19T03:41:15.299Z,70.36
2023-03-19T03:44:00.829Z,70.04
2023-03-19T03:46:46.205Z,69.50
2023-03-19T03:49:31.634Z,70.25
2023-03-19T03:52:17.048Z,70.55
2023-03-19T03:55:02.440Z,70.57
2023-03-19T03:57:48.193Z,70.61
2023-03-19T04:00:34.379Z,70.46
2023-03-19T04:03:20.080Z,70.51
2023-03-19T04:06:05.763Z,70.42
2023-03-19T04:08:51.126Z,70.13
2023-03-19T04:11:36.934Z,70.47
2023-03-19T04:14:22.440Z,70.30
2023-03-19T04:17:08.236Z,69.93
2023-03-19T04:19:53.641Z,70.32
2023-03-19T04:22:39.327Z,70.50
2023-03-19T04:25:25.028Z,70.58
2023-03-19T04:28:10.454Z,70.39
2023-03-19T04:31:04.084Z,71.53
2023-03-19T04:33:51.658Z,71.68
2023-03-19T04:36:38.415Z,70.92
2023-03-19T04:39:23.981Z,70.62
2023-03-19T04:42:11.150Z,70.72
2023-03-19T04:45:04.410Z,70.55
2023-03-19T04:47:50.125Z,70.70
2023-03-19T04:50:36.047Z,70.92
2023-03-19T04:53:21.596Z,71.25
2023-03-19T04:56:07.739Z,71.71
2023-03-19T04:58:54.054Z,71.69
2023-03-19T05:01:39.244Z,71.39
2023-03-19T05:04:26.851Z,72.01
2023-03-19T05:07:17.969Z,71.55
2023-03-19T05:10:03.988Z,71.16
2023-03-19T05:12:49.716Z,70.90
2023-03-19T05:15:35.638Z,70.93
2023-03-19T05:18:25.239Z,71.55
2023-03-19T05:21:13.214Z,71.30
2023-03-19T05:23:59.103Z,71.76
2023-03-19T05:26:44.937Z,71.65
2023-03-19T05:29:48.991Z,72.13
2023-03-19T05:32:59.072Z,72.55
2023-03-19T05:36:03.964Z,72.88
2023-03-19T05:39:04.609Z,74.21
2023-03-19T05:41:53.751Z,74.72
2023-03-19T05:44:44.336Z,74.89
2023-03-19T05:47:55.902Z,73.79
2023-03-19T05:50:41.567Z,74.80
2023-03-19T05:53:38.631Z,74.20
2023-03-19T05:56:46.690Z,73.70
2023-03-19T05:59:52.514Z,73.45
2023-03-19T06:02:57.916Z,73.46
2023-03-19T06:06:01.739Z,72.88
2023-03-19T06:08:54.714Z,73.05
2023-03-19T06:11:44.161Z,73.55
2023-03-19T06:14:48.075Z,73.89
2023-03-19T06:17:53.800Z,73.89
2023-03-19T06:20:39.285Z,73.54
2023-03-19T06:23:24.650Z,73.81
2023-03-19T06:26:09.719Z,73.82
2023-03-19T06:29:06.514Z,73.71
2023-03-19T06:31:53.020Z,73.69
2023-03-19T06:34:55.954Z,74.71
2023-03-19T06:37:41.602Z,75.25
2023-03-19T06:40:26.926Z,75.24
2023-03-19T06:43:12.110Z,75.45
2023-03-19T06:45:57.431Z,76.01
2023-03-19T06:48:42.766Z,75.98
2023-03-19T06:51:28.013Z,75.89
2023-03-19T06:54:14.502Z,76.11
2023-03-19T06:57:00.052Z,76.39
2023-03-19T06:59:45.231Z,76.64
2023-03-19T07:02:30.421Z,75.91
2023-03-19T07:05:15.706Z,75.59
2023-03-19T07:08:01.266Z,75.36
2023-03-19T07:10:46.988Z,74.95
2023-03-19T07:13:34.234Z,74.87
2023-03-19T07:16:19.910Z,75.16
2023-03-19T07:19:05.051Z,75.41
2023-03-19T07:21:50.252Z,75.64
2023-03-19T07:24:35.777Z,75.39
2023-03-19T07:27:21.325Z,75.38
2023-03-19T07:30:07.453Z,74.81
2023-03-19T07:32:52.755Z,74.22
2023-03-19T07:35:37.974Z,73.53
2023-03-19T07:38:23.197Z,72.60
2023-03-19T07:41:08.458Z,72.60
2023-03-19T07:43:53.765Z,71.58
2023-03-19T07:46:39.176Z,71.27
2023-03-19T07:49:24.542Z,70.78
2023-03-19T07:52:10.245Z,70.82
2023-03-19T07:54:55.608Z,70.42
2023-03-19T07:57:40.758Z,70.30
2023-03-19T08:00:26.263Z,70.57
2023-03-19T08:03:13.971Z,69.73
2023-03-19T08:05:59.168Z,69.92
2023-03-19T08:08:45.027Z,70.05
2023-03-19T08:11:30.577Z,70.66
2023-03-19T08:14:16.207Z,71.00
2023-03-19T08:17:01.315Z,69.71
2023-03-19T08:19:47.284Z,69.45
2023-03-19T08:22:32.895Z,71.49
2023-03-19T08:25:18.365Z,73.20
2023-03-19T08:28:03.530Z,72.20
2023-03-19T08:30:48.807Z,72.27
2023-03-19T08:33:33.982Z,72.33
2023-03-19T08:36:19.438Z,70.46
2023-03-19T08:39:04.526Z,69.34
2023-03-19T08:41:49.882Z,69.58
2023-03-19T08:44:35.247Z,68.23
2023-03-19T08:47:20.971Z,67.82
2023-03-19T08:50:07.326Z,67.45
2023-03-19T08:52:52.840Z,66.91
2023-03-19T08:55:38.259Z,66.13
2023-03-19T08:58:24.657Z,63.75
2023-03-19T09:01:13.011Z,61.74
2023-03-19T09:03:58.517Z,60.70
2023-03-19T09:06:44.332Z,60.28
2023-03-19T09:09:29.778Z,60.40
2023-03-19T09:12:16.673Z,59.75
2023-03-19T09:15:02.199Z,59.20
2023-03-19T09:17:47.580Z,58.80
2023-03-19T09:20:32.769Z,58.74
2023-03-19T09:23:18.397Z,58.79
2023-03-19T09:26:04.139Z,58.79
2023-03-19T09:28:49.456Z,58.54
2023-03-19T09:31:35.125Z,58.08
2023-03-19T09:34:20.404Z,57.82
2023-03-19T09:37:05.672Z,58.73
2023-03-19T09:39:51.039Z,58.51
2023-03-19T09:42:51.980Z,57.16
2023-03-19T09:45:37.887Z,57.17
2023-03-19T09:48:39.381Z,58.41
2023-03-19T09:51:43.546Z,58.48
2023-03-19T09:54:50.744Z,57.18
2023-03-19T09:57:37.217Z,57.47
2023-03-19T10:00:27.226Z,57.48
2023-03-19T10:03:21.489Z,57.09
2023-03-19T10:06:07.140Z,57.02
2023-03-19T10:09:15.904Z,57.45
2023-03-19T10:12:29.809Z,56.49
2023-03-19T10:15:18.783Z,56.34
2023-03-19T10:18:15.947Z,55.33
2023-03-19T10:21:09.719Z,56.49
2023-03-19T10:23:57.884Z,56.01
2023-03-19T10:26:45.444Z,56.22
2023-03-19T10:29:31.627Z,55.25
2023-03-19T10:32:41.701Z,54.71
2023-03-19T10:35:41.272Z,54.38
2023-03-19T10:38:27.414Z,55.03
2023-03-19T10:41:45.359Z,55.47
2023-03-19T10:44:48.533Z,54.00
2023-03-19T10:47:39.026Z,53.91
2023-03-19T10:50:32.550Z,54.76
2023-03-19T10:53:27.392Z,55.53
2023-03-19T10:56:24.844Z,54.22
2023-03-19T10:59:31.245Z,53.74
2023-03-19T11:02:23.475Z,56.28
2023-03-19T11:05:24.176Z,56.06
2023-03-19T11:08:35.027Z,54.91
2023-03-19T11:11:35.631Z,55.40
2023-03-19T11:14:34.620Z,55.51
2023-03-19T11:17:26.476Z,56.53
2023-03-19T11:20:24.147Z,57.04
2023-03-19T11:23:16.073Z,56.67
2023-03-19T11:26:01.543Z,57.49
2023-03-19T11:28:51.546Z,55.27
2023-03-19T11:31:47.599Z,54.79
2023-03-19T11:34:53.726Z,54.63
2023-03-19T11:37:54.539Z,53.06
2023-03-19T11:40:45.032Z,53.95
2023-03-19T11:43:32.794Z,55.16
2023-03-19T11:46:32.499Z,54.22
2023-03-19T11:49:30.527Z,53.77
2023-03-19T11:52:36.949Z,52.41
2023-03-19T11:55:33.590Z,53.50
2023-03-19T11:58:49.427Z,52.43
2023-03-19T12:01:51.243Z,54.10
2023-03-19T12:05:05.523Z,54.14
2023-03-19T12:08:11.037Z,55.73
2023-03-19T12:11:18.457Z,54.61
2023-03-19T12:14:27.009Z,53.88
2023-03-19T12:17:21.010Z,54.05
2023-03-19T12:20:24.682Z,54.99
2023-03-19T12:23:30.849Z,52.44
2023-03-19T12:26:26.008Z,52.32
2023-03-19T12:29:30.861Z,52.06
2023-03-19T12:32:25.506Z,51.99
2023-03-19T12:35:16.961Z,51.34
2023-03-19T12:38:17.260Z,51.66
2023-03-19T12:41:10.305Z,50.91
2023-03-19T12:44:03.652Z,53.05
2023-03-19T12:47:08.992Z,53.36
2023-03-19T12:50:07.334Z,52.55
2023-03-19T12:52:58.223Z,52.63
2023-03-19T12:55:52.481Z,52.22
2023-03-19T12:58:49.554Z,52.59
2023-03-19T13:01:48.745Z,50.10
2023-03-19T13:04:40.118Z,50.06
2023-03-19T13:07:46.594Z,50.05
2023-03-19T13:10:32.697Z,49.25
2023-03-19T13:13:40.307Z,49.76
2023-03-19T13:16:46.426Z,48.97
2023-03-19T13:19:45.698Z,49.01
2023-03-19T13:22:35.891Z,49.53
2023-03-19T13:25:27.305Z,50.46
2023-03-19T13:28:22.557Z,49.25
2023-03-19T13:31:19.427Z,49.29
2023-03-19T13:34:17.438Z,49.05
2023-03-19T13:37:29.368Z,47.97
2023-03-19T13:40:42.112Z,48.82
2023-03-19T13:43:30.489Z,48.50
2023-03-19T13:46:16.159Z,49.68
2023-03-19T13:49:22.941Z,51.31
2023-03-19T13:52:11.327Z,50.49
2023-03-19T13:55:25.507Z,52.22
2023-03-19T13:58:11.077Z,48.68
2023-03-19T14:00:58.659Z,50.57
2023-03-19T14:04:04.046Z,50.02
2023-03-19T14:06:53.099Z,52.09
2023-03-19T14:10:04.669Z,51.77
2023-03-19T14:12:50.112Z,55.19
2023-03-19T14:15:38.984Z,56.33
2023-03-19T14:18:25.440Z,62.99
2023-03-19T14:21:31.846Z,63.30
2023-03-19T14:24:56.854Z,66.38
2023-03-19T14:27:59.381Z,65.26
2023-03-19T14:30:47.890Z,66.98
2023-03-19T14:33:44.047Z,67.29
2023-03-19T14:36:30.680Z,68.35
2023-03-19T14:39:32.140Z,70.04
2023-03-19T14:42:27.066Z,72.51
2023-03-19T14:45:48.646Z,72.25
2023-03-19T14:49:06.633Z,74.57
2023-03-19T14:51:57.623Z,74.14
2023-03-19T14:54:51.149Z,73.37
2023-03-19T14:57:36.595Z,72.76
2023-03-19T15:00:21.843Z,74.42
2023-03-19T15:03:19.785Z,76.61
2023-03-19T15:06:07.889Z,77.05
2023-03-19T15:08:53.068Z,77.80
2023-03-19T15:11:54.680Z,78.40
2023-03-19T15:15:06.667Z,78.70
2023-03-19T15:18:03.782Z,78.38
2023-03-19T15:20:54.215Z,76.95
2023-03-19T15:23:41.667Z,76.52
2023-03-19T15:26:36.587Z,75.35
2023-03-19T15:29:37.756Z,74.91
2023-03-19T15:33:07.854Z,73.08
2023-03-19T15:35:43.019Z,70.76
2023-03-19T15:38:33.251Z,73.24
2023-03-19T15:41:20.070Z,73.16
2023-03-19T15:44:11.028Z,74.85
2023-03-19T15:46:57.872Z,68.95
2023-03-19T15:49:49.833Z,67.21
2023-03-19T15:52:40.444Z,69.70
2023-03-19T15:55:26.604Z,69.87
2023-03-19T15:58:17.442Z,68.21
2023-03-19T16:01:07.731Z,68.30
2023-03-19T16:04:03.790Z,71.00
2023-03-19T16:06:49.979Z,68.95
2023-03-19T16:09:35.222Z,67.68
2023-03-19T16:12:40.753Z,67.01
2023-03-19T16:15:45.946Z,68.46
2023-03-19T16:19:02.077Z,68.44
2023-03-19T16:21:48.911Z,67.80
2023-03-19T16:24:36.220Z,68.20
2023-03-19T16:27:38.620Z,67.32
2023-03-19T16:30:28.153Z,68.38
2023-03-19T16:33:14.869Z,68.08
2023-03-19T16:35:59.986Z,68.01
2023-03-19T16:39:10.972Z,67.68
2023-03-19T16:42:08.620Z,65.27
2023-03-19T16:44:54.094Z,66.27
2023-03-19T16:47:39.582Z,66.19
2023-03-19T16:50:31.274Z,64.29
2023-03-19T16:53:25.464Z,64.19
2023-03-19T16:56:14.424Z,64.60
2023-03-19T16:59:01.734Z,65.00
2023-03-19T17:01:47.375Z,65.57
2023-03-19T17:04:32.836Z,66.09
2023-03-19T17:07:18.047Z,66.45
2023-03-19T17:10:03.328Z,66.84
2023-03-19T17:12:52.084Z,67.36
2023-03-19T17:15:40.726Z,66.81
2023-03-19T17:18:29.328Z,67.62
2023-03-19T17:21:33.313Z,67.60
2023-03-19T17:24:25.881Z,69.04
2023-03-19T17:27:11.311Z,68.80
2023-03-19T17:29:56.684Z,68.66
2023-03-19T17:32:46.918Z,68.66
2023-03-19T17:35:32.833Z,69.22
2023-03-19T17:38:19.272Z,69.58
2023-03-19T17:41:18.183Z,69.91
2023-03-19T17:44:06.467Z,71.41
2023-03-19T17:46:57.404Z,70.64
2023-03-19T17:49:42.868Z,71.00
2023-03-19T17:52:28.898Z,71.24
2023-03-19T17:55:23.242Z,72.95
2023-03-19T17:58:18.569Z,72.47
2023-03-19T18:01:03.905Z,71.29
2023-03-19T18:03:51.055Z,70.61
2023-03-19T18:06:45.442Z,70.50
2023-03-19T18:09:30.901Z,70.64
2023-03-19T18:12:16.380Z,70.71
2023-03-19T18:15:02.051Z,70.75
2023-03-19T18:17:56.285Z,70.67
2023-03-19T18:20:41.936Z,71.26
2023-03-19T18:23:27.234Z,71.55
2023-03-19T18:26:12.792Z,71.42
2023-03-19T18:28:58.055Z,71.27
2023-03-19T18:31:47.458Z,72.35
2023-03-19T18:34:32.795Z,72.26
2023-03-19T18:37:18.458Z,72.22
2023-03-19T18:40:04.316Z,73.19
2023-03-19T18:42:49.916Z,72.80
2023-03-19T18:45:35.527Z,71.87
2023-03-19T18:48:24.628Z,72.01
2023-03-19T18:51:11.665Z,71.69
2023-03-19T18:53:57.422Z,71.34
2023-03-19T18:56:44.215Z,71.20
2023-03-19T18:59:32.760Z,71.82
2023-03-19T19:02:36.337Z,71.24
2023-03-19T19:05:23.768Z,71.53
2023-03-19T19:08:18.630Z,71.25
2023-03-19T19:11:06.830Z,71.54
2023-03-19T19:13:58.805Z,71.32
2023-03-19T19:16:44.453Z,71.57
2023-03-19T19:19:30.123Z,71.51
2023-03-19T19:22:18.130Z,71.53
2023-03-19T19:25:03.600Z,71.54
2023-03-19T19:27:54.422Z,71.03
2023-03-19T19:30:40.163Z,71.93
2023-03-19T19:33:27.974Z,72.75
2023-03-19T19:36:13.612Z,73.14
2023-03-19T19:38:58.596Z,73.18
2023-03-19T19:41:44.451Z,72.09
2023-03-19T19:44:29.894Z,71.86
2023-03-19T19:47:16.362Z,72.01
2023-03-19T19:50:01.627Z,71.83
2023-03-19T19:52:47.193Z,72.09
2023-03-19T19:55:32.756Z,71.33
2023-03-19T19:58:21.551Z,71.20
2023-03-19T20:01:15.587Z,71.38
2023-03-19T20:04:00.950Z,71.66
2023-03-19T20:06:46.449Z,70.96
2023-03-19T20:09:31.955Z,71.25
2023-03-19T20:12:24.701Z,71.39
2023-03-19T20:15:35.228Z,71.47
2023-03-19T20:18:23.869Z,71.27
2023-03-19T20:21:13.403Z,71.06
2023-03-19T20:23:58.617Z,71.14
2023-03-19T20:26:44.281Z,71.71
2023-03-19T20:29:34.483Z,71.77
2023-03-19T20:32:33.367Z,71.97
2023-03-19T20:35:26.954Z,72.07
2023-03-19T20:38:14.086Z,72.06
2023-03-19T20:40:59.628Z,71.86
2023-03-19T20:43:44.967Z,71.70
2023-03-19T20:46:30.489Z,71.55
2023-03-19T20:49:16.084Z,72.87
2023-03-19T20:52:01.539Z,72.79
2023-03-19T20:54:47.028Z,73.85
2023-03-19T20:57:32.373Z,73.16
2023-03-19T21:00:21.530Z,74.27
2023-03-19T21:03:11.116Z,74.08
2023-03-19T21:06:02.824Z,73.82
2023-03-19T21:08:50.723Z,74.08
2023-03-19T21:11:41.229Z,74.12
2023-03-19T21:14:26.692Z,73.71
2023-03-19T21:17:12.056Z,73.70
2023-03-19T21:19:57.193Z,73.63
2023-03-19T21:22:43.169Z,73.87
2023-03-19T21:25:31.370Z,73.96
2023-03-19T21:28:25.547Z,74.03
2023-03-19T21:31:16.082Z,73.99
2023-03-19T21:34:01.828Z,73.41
2023-03-19T21:36:47.335Z,73.61
2023-03-19T21:39:32.534Z,73.31
2023-03-19T21:42:20.600Z,73.48
2023-03-19T21:45:06.390Z,73.48
2023-03-19T21:47:52.106Z,73.15
2023-03-19T21:50:37.519Z,73.53
2023-03-19T21:53:23.525Z,73.35
2023-03-19T21:56:20.482Z,73.14
2023-03-19T21:59:14.016Z,74.38
2023-03-19T22:01:59.893Z,74.63
2023-03-19T22:04:45.104Z,74.55
2023-03-19T22:07:30.413Z,74.64
2023-03-19T22:10:16.272Z,74.45
2023-03-19T22:13:01.793Z,74.56
2023-03-19T22:15:49.197Z,74.37
2023-03-19T22:18:34.776Z,74.70
2023-03-19T22:21:22.735Z,74.63
2023-03-19T22:24:08.161Z,74.98
2023-03-19T22:26:57.446Z,74.60
2023-03-19T22:29:44.617Z,74.46
2023-03-19T22:32:30.224Z,74.53
2023-03-19T22:35:17.593Z,74.35
2023-03-19T22:38:03.022Z,73.89
2023-03-19T22:40:51.483Z,73.64
2023-03-19T22:43:37.962Z,72.87
2023-03-19T22:46:23.782Z,72.85
2023-03-19T22:49:15.162Z,72.71
2023-03-19T22:52:01.220Z,72.52
2023-03-19T22:54:46.624Z,72.60
2023-03-19T22:57:31.924Z,72.04
2023-03-19T23:00:22.553Z,71.89
2023-03-19T23:03:12.387Z,71.69
2023-03-19T23:06:01.313Z,71.77
2023-03-19T23:08:46.685Z,72.09
2023-03-19T23:11:32.255Z,72.27
2023-03-19T23:14:28.951Z,72.76
2023-03-19T23:17:16.521Z,73.66
2023-03-19T23:20:20.092Z,73.27
2023-03-19T23:23:05.347Z,73.65
2023-03-19T23:25:51.392Z,73.57
2023-03-19T23:28:36.563Z,73.14
2023-03-19T23:31:22.418Z,75.45
2023-03-19T23:34:10.437Z,75.48
2023-03-19T23:36:55.881Z,74.79
2023-03-19T23:39:41.258Z,75.81
2023-03-19T23:42:31.604Z,74.90
2023-03-19T23:45:30.648Z,74.25
2023-03-19T23:48:25.027Z,73.51
2023-03-19T23:51:13.386Z,73.35
2023-03-19T23:53:58.603Z,72.69
2023-03-19T23:56:44.033Z,71.94
2023-03-19T23:59:34.055Z,72.12
